Time;durP1;ratioP1;P1;durP2;ratioP2;P2;SDS_P1;SDS_P2;PMS_P1;PMS_P2;Temp;Humidity;BMP_temperature;BMP_pressure;BME280_temperature;BME280_humidity;BME280_pressure;Samples;Min_cycle;Max_cycle;Signal;HPM_P1;HPM_P2
2023/11/03 00:02:08;;;;;;;8.35;1.00;;;;;;;13.91;78.70;97460.81;4992478;28;20454;-66
2023/11/03 00:04:36;;;;;;;0.20;0.20;;;;;;;14.02;78.96;97455.66;4991913;28;20027;-67
2023/11/03 00:07:04;;;;;;;0.40;0.40;;;;;;;14.07;77.70;97452.31;4976812;28;20034;-66
2023/11/03 00:09:33;;;;;;;0.32;0.32;;;;;;;13.97;78.73;97447.41;4991192;28;20452;-67
2023/11/03 00:12:03;;;;;;;0.25;0.22;;;;;;;14.03;78.33;97448.31;4989884;28;20038;-67
2023/11/03 00:14:29;;;;;;;1.25;0.52;;;;;;;13.98;78.83;97440.78;4991840;28;20469;-67
2023/11/03 00:16:56;;;;;;;1.80;0.40;;;;;;;14.12;78.32;97443.59;4994795;28;20037;-67
2023/11/03 00:19:25;;;;;;;0.30;0.25;;;;;;;14.04;78.27;97442.44;5005938;28;20130;-66
2023/11/03 00:21:54;;;;;;;0.35;0.20;;;;;;;14.09;78.26;97439.09;4974588;28;20039;-67
2023/11/03 00:24:20;;;;;;;0.90;0.28;;;;;;;14.11;77.62;97433.97;4988778;28;20022;-67
2023/11/03 00:26:47;;;;;;;2.53;0.30;;;;;;;13.92;78.60;97429.84;4994690;28;20054;-66
2023/11/03 00:29:15;;;;;;;1.75;0.38;;;;;;;13.89;78.84;97430.00;4997866;28;20033;-66
2023/11/03 00:31:47;;;;;;;0.93;0.45;;;;;;;13.93;79.06;97439.47;4996860;28;20030;-66
2023/11/03 00:34:14;;;;;;;1.23;0.43;;;;;;;13.96;78.47;97446.66;4993308;28;20033;-67
2023/11/03 00:36:41;;;;;;;1.13;0.57;;;;;;;13.85;78.98;97434.81;4985776;28;20034;-68
2023/11/03 00:39:09;;;;;;;2.05;0.47;;;;;;;13.87;78.83;97445.94;4995982;28;20018;-67
2023/11/03 00:41:34;;;;;;;1.00;0.50;;;;;;;13.96;78.47;97437.78;4989495;28;20049;-67
2023/11/03 00:44:00;;;;;;;2.75;0.77;;;;;;;13.82;78.81;97439.19;4989253;28;20446;-66
2023/11/03 00:46:26;;;;;;;2.80;0.50;;;;;;;13.73;79.40;97443.84;4994087;28;20115;-67
2023/11/03 00:48:51;;;;;;;1.40;0.35;;;;;;;13.77;79.02;97434.41;5000687;28;20036;-66
2023/11/03 00:51:17;;;;;;;0.90;0.60;;;;;;;13.75;79.57;97438.75;4992586;28;20432;-66
2023/11/03 00:53:45;;;;;;;2.20;0.55;;;;;;;13.74;79.09;97445.38;4987910;28;20022;-66
2023/11/03 00:56:10;;;;;;;0.98;0.30;;;;;;;13.82;78.89;97441.88;4984241;28;20030;-66
2023/11/03 00:58:36;;;;;;;0.80;0.30;;;;;;;13.76;79.74;97449.13;4973141;28;20519;-67
2023/11/03 01:01:03;;;;;;;1.10;0.30;;;;;;;13.65;79.24;97448.84;4990693;28;20520;-66
2023/11/03 01:03:28;;;;;;;1.17;0.47;;;;;;;13.73;79.34;97455.44;5008289;28;20029;-66
2023/11/03 01:05:54;;;;;;;0.17;0.17;;;;;;;13.71;79.42;97455.13;4996482;28;20034;-66
2023/11/03 01:08:22;;;;;;;0.65;0.50;;;;;;;13.75;79.57;97436.03;4996794;28;20015;-67
2023/11/03 01:10:49;;;;;;;0.52;0.30;;;;;;;13.69;79.06;97449.44;4998088;28;20034;-66
2023/11/03 01:13:15;;;;;;;0.50;0.43;;;;;;;13.70;79.41;97440.13;5012588;28;20408;-66
2023/11/03 01:15:43;;;;;;;0.30;0.30;;;;;;;13.78;79.29;97446.69;4979048;28;20034;-66
2023/11/03 01:18:09;;;;;;;1.20;0.57;;;;;;;13.69;79.07;97443.25;5006179;28;20026;-66
2023/11/03 01:20:38;;;;;;;0.40;0.40;;;;;;;13.67;79.90;97435.63;4989633;28;20057;-66
2023/11/03 01:23:03;;;;;;;1.65;0.47;;;;;;;13.62;78.64;97436.25;5007501;28;20030;-66
2023/11/03 01:25:29;;;;;;;0.50;0.47;;;;;;;13.54;79.50;97426.94;4993251;28;20113;-66
2023/11/03 01:27:55;;;;;;;1.08;0.40;;;;;;;13.56;79.14;97427.22;4991779;28;20523;-67
2023/11/03 01:30:21;;;;;;;0.70;0.40;;;;;;;13.62;79.26;97440.88;4993584;28;20034;-66
2023/11/03 01:32:47;;;;;;;3.78;0.55;;;;;;;13.41;79.26;97431.75;4991035;28;20118;-66
2023/11/03 01:35:13;;;;;;;0.68;0.30;;;;;;;13.53;79.59;97437.00;4991657;28;20039;-66
2023/11/03 01:37:38;;;;;;;3.35;0.50;;;;;;;13.56;79.26;97430.69;4991730;28;20030;-67
2023/11/03 01:40:08;;;;;;;0.80;0.50;;;;;;;13.55;79.04;97428.41;4995396;28;20092;-66
2023/11/03 01:42:37;;;;;;;0.93;0.35;;;;;;;13.50;78.97;97432.50;4990063;28;20041;-66
2023/11/03 01:45:06;;;;;;;0.50;0.50;;;;;;;13.42;79.16;97430.56;5001364;28;20053;-66
2023/11/03 01:47:34;;;;;;;1.60;0.47;;;;;;;13.52;78.71;97440.16;4987150;28;20021;-66
2023/11/03 01:50:00;;;;;;;1.75;0.63;;;;;;;13.50;79.16;97435.22;4989731;28;20413;-66
2023/11/03 01:52:27;;;;;;;1.63;0.40;;;;;;;13.41;78.97;97445.28;4991110;28;20439;-66
2023/11/03 01:54:53;;;;;;;1.52;0.52;;;;;;;13.43;79.05;97438.19;5012352;28;20465;-66
2023/11/03 01:57:19;;;;;;;1.13;0.40;;;;;;;13.30;79.35;97434.16;4991279;28;20030;-67
2023/11/03 01:59:52;;;;;;;0.35;0.30;;;;;;;13.39;78.86;97434.16;4990200;28;20456;-66
2023/11/03 02:02:19;;;;;;;1.05;0.30;;;;;;;13.26;79.51;97433.56;4972216;28;20035;-66
2023/11/03 02:04:45;;;;;;;0.75;0.57;;;;;;;13.23;79.65;97424.41;5004014;28;20667;-67
2023/11/03 02:07:11;;;;;;;0.75;0.52;;;;;;;13.16;79.56;97421.28;5004745;28;20096;-66
2023/11/03 02:09:36;;;;;;;1.17;0.40;;;;;;;13.01;80.27;97423.03;4987202;28;20081;-67
2023/11/03 02:12:02;;;;;;;0.85;0.43;;;;;;;13.04;80.69;97422.19;5013013;28;20037;-66
2023/11/03 02:14:28;;;;;;;0.57;0.35;;;;;;;13.17;80.19;97428.16;4990649;28;20036;-66
2023/11/03 02:16:54;;;;;;;0.85;0.30;;;;;;;13.33;79.23;97434.03;4997426;28;20030;-66
2023/11/03 02:19:20;;;;;;;0.93;0.55;;;;;;;13.33;79.15;97430.56;4988405;28;20042;-66
2023/11/03 02:21:45;;;;;;;2.50;1.13;;;;;;;13.17;79.74;97434.34;4992027;28;20046;-66
2023/11/03 02:24:14;;;;;;;2.25;1.10;;;;;;;13.21;79.71;97424.13;4994368;28;20096;-66
2023/11/03 02:26:39;;;;;;;2.20;1.27;;;;;;;13.15;79.40;97423.22;4994751;28;20026;-66
2023/11/03 02:29:05;;;;;;;3.65;1.80;;;;;;;13.17;80.10;97433.56;4990638;28;20046;-66
2023/11/03 02:31:31;;;;;;;2.63;1.90;;;;;;;13.10;79.62;97431.19;4987453;28;20038;-66
2023/11/03 02:33:57;;;;;;;4.50;1.80;;;;;;;13.01;80.46;97426.50;5003173;28;20034;-66
2023/11/03 02:36:23;;;;;;;2.63;1.75;;;;;;;12.98;80.90;97434.75;4992562;28;20110;-67
2023/11/03 02:38:54;;;;;;;5.35;1.80;;;;;;;13.03;80.38;97429.53;4999232;28;20061;-66
2023/11/03 02:41:19;;;;;;;2.42;1.30;;;;;;;12.85;80.75;97426.81;4991312;28;20042;-66
2023/11/03 02:43:45;;;;;;;3.85;1.17;;;;;;;12.93;81.05;97424.56;4994618;28;20087;-66
2023/11/03 02:46:11;;;;;;;2.15;1.33;;;;;;;12.80;81.36;97423.91;5017132;28;20029;-66
2023/11/03 02:48:39;;;;;;;1.83;1.13;;;;;;;12.80;81.72;97432.03;4983340;28;20030;-66
2023/11/03 02:51:05;;;;;;;2.00;0.98;;;;;;;12.91;80.77;97435.78;4986900;28;20026;-66
2023/11/03 02:53:32;;;;;;;2.85;1.23;;;;;;;12.88;80.17;97438.63;4971825;28;20413;-67
2023/11/03 02:55:57;;;;;;;5.50;1.55;;;;;;;12.88;80.65;97447.50;4986285;28;20046;-66
2023/11/03 02:58:34;;;;;;;4.20;1.05;;;;;;;12.87;80.74;97450.66;4994147;28;20042;-66
2023/11/03 03:01:00;;;;;;;4.20;1.10;;;;;;;12.74;80.58;97458.13;4987195;28;20041;-66
2023/11/03 03:03:26;;;;;;;0.90;0.82;;;;;;;12.61;81.72;97459.00;4990578;28;20030;-66
2023/11/03 03:05:51;;;;;;;1.27;0.82;;;;;;;12.45;82.15;97456.56;4992489;28;20082;-66
2023/11/03 03:08:17;;;;;;;3.28;0.98;;;;;;;12.46;82.00;97439.19;4991704;28;20064;-66
2023/11/03 03:10:42;;;;;;;1.67;0.77;;;;;;;12.67;81.46;97440.28;4988688;28;20038;-66
2023/11/03 03:13:07;;;;;;;2.03;0.80;;;;;;;12.64;81.18;97433.03;4984835;28;20038;-66
2023/11/03 03:15:35;;;;;;;1.15;0.90;;;;;;;12.49;81.38;97440.97;4996712;28;20034;-67
2023/11/03 03:18:02;;;;;;;1.52;0.73;;;;;;;12.44;81.09;97446.22;4996984;28;20100;-66
2023/11/03 03:20:28;;;;;;;0.85;0.50;;;;;;;12.49;81.55;97434.81;4993701;28;20042;-66
2023/11/03 03:22:53;;;;;;;4.80;0.85;;;;;;;12.61;80.92;97431.25;4988329;28;20054;-66
2023/11/03 03:25:18;;;;;;;2.92;0.80;;;;;;;12.48;80.81;97434.09;5006224;28;20085;-66
2023/11/03 03:27:44;;;;;;;1.77;0.88;;;;;;;12.37;80.86;97422.19;4985545;28;20081;-66
2023/11/03 03:30:10;;;;;;;0.93;0.70;;;;;;;12.33;80.57;97430.44;4988841;28;20677;-67
2023/11/03 03:32:36;;;;;;;2.63;1.02;;;;;;;12.31;80.97;97422.03;4985360;28;20042;-67
2023/11/03 03:35:02;;;;;;;1.15;0.60;;;;;;;12.15;81.33;97418.84;4991232;28;20117;-66
2023/11/03 03:37:27;;;;;;;3.85;0.63;;;;;;;12.32;80.50;97428.19;5007321;28;20144;-66
2023/11/03 03:39:52;;;;;;;1.58;0.52;;;;;;;12.20;80.93;97437.88;4988859;28;20039;-66
2023/11/03 03:42:21;;;;;;;1.60;0.70;;;;;;;12.25;80.11;97431.91;4974758;28;20039;-66
2023/11/03 03:44:46;;;;;;;1.27;0.98;;;;;;;12.19;79.57;97430.25;4995597;28;20093;-66
2023/11/03 03:47:12;;;;;;;0.52;0.50;;;;;;;12.27;79.66;97424.09;4988688;28;20034;-67
2023/11/03 03:49:37;;;;;;;1.08;0.60;;;;;;;12.45;78.87;97418.78;4988944;28;20038;-67
2023/11/03 03:52:04;;;;;;;0.20;0.20;;;;;;;12.44;77.69;97414.59;4992713;28;20073;-67
2023/11/03 03:54:30;;;;;;;2.03;0.60;;;;;;;12.28;77.78;97404.03;4998495;28;20515;-67
2023/11/03 03:56:55;;;;;;;1.70;0.63;;;;;;;12.32;77.20;97401.97;5009101;28;20035;-66
2023/11/03 03:59:21;;;;;;;1.50;0.50;;;;;;;12.32;78.30;97401.97;5002775;28;20053;-66
2023/11/03 04:01:49;;;;;;;0.20;0.20;;;;;;;12.31;77.14;97400.44;4996739;28;20480;-67
2023/11/03 04:04:14;;;;;;;0.35;0.30;;;;;;;12.38;76.77;97397.47;4993143;28;20083;-67
2023/11/03 04:06:40;;;;;;;0.38;0.35;;;;;;;12.40;76.41;97381.59;4996103;28;20022;-66
2023/11/03 04:09:05;;;;;;;5.80;0.50;;;;;;;12.39;76.04;97390.09;4996332;28;20109;-66
2023/11/03 04:11:31;;;;;;;0.30;0.30;;;;;;;12.16;76.94;97377.91;4990035;28;20462;-66
2023/11/03 04:13:58;;;;;;;3.60;0.50;;;;;;;12.14;76.24;97374.16;5001254;28;20042;-67
2023/11/03 04:16:34;;;;;;;0.30;0.30;;;;;;;12.10;76.85;97368.19;4978414;28;20037;-67
2023/11/03 04:19:00;;;;;;;1.38;0.50;;;;;;;12.28;75.93;97371.66;5001835;28;20117;-67
2023/11/03 04:21:26;;;;;;;1.17;0.30;;;;;;;12.44;75.28;97367.94;5010370;28;20125;-66
2023/11/03 04:23:51;;;;;;;1.38;0.57;;;;;;;12.24;75.65;97368.34;4995162;28;20054;-66
2023/11/03 04:26:16;;;;;;;1.23;1.05;;;;;;;12.49;74.75;97365.41;4993830;28;20022;-66
2023/11/03 04:28:42;;;;;;;0.35;0.35;;;;;;;12.30;74.39;97363.88;4992212;28;20048;-67
2023/11/03 04:31:07;;;;;;;6.35;0.88;;;;;;;12.38;74.64;97361.63;5004199;28;20069;-67
2023/11/03 04:33:33;;;;;;;0.43;0.30;;;;;;;12.34;74.27;97359.09;4985403;28;20030;-66
2023/11/03 04:35:58;;;;;;;1.27;0.40;;;;;;;12.34;74.67;97348.28;4993427;28;20030;-66
2023/11/03 04:38:24;;;;;;;1.65;0.60;;;;;;;12.40;74.91;97348.44;4992718;28;20105;-67
2023/11/03 04:40:49;;;;;;;2.60;0.32;;;;;;;12.48;74.82;97345.03;4997532;28;20045;-66
2023/11/03 04:43:15;;;;;;;1.08;0.50;;;;;;;12.27;73.81;97356.66;4993852;28;20038;-67
2023/11/03 04:45:40;;;;;;;0.73;0.32;;;;;;;12.33;74.78;97362.97;5006593;28;20073;-66
2023/11/03 04:48:06;;;;;;;4.72;0.40;;;;;;;12.33;74.66;97367.63;4984665;28;20060;-67
2023/11/03 04:50:31;;;;;;;0.57;0.47;;;;;;;12.33;74.21;97381.84;4992204;28;20100;-66
2023/11/03 04:52:57;;;;;;;3.90;1.30;;;;;;;12.20;75.18;97389.31;4990077;28;20041;-67
2023/11/03 04:55:22;;;;;;;0.88;0.50;;;;;;;12.21;74.82;97408.97;5001560;28;20117;-66
2023/11/03 04:57:48;;;;;;;1.35;0.60;;;;;;;12.37;74.18;97408.69;5010954;28;20495;-66
2023/11/03 05:00:13;;;;;;;0.68;0.35;;;;;;;12.28;74.73;97404.03;4990682;28;20501;-66
2023/11/03 05:02:40;;;;;;;1.05;0.38;;;;;;;12.20;74.61;97399.34;4993095;28;20480;-66
2023/11/03 05:05:06;;;;;;;0.32;0.30;;;;;;;12.22;74.44;97397.72;4993008;28;20033;-67
2023/11/03 05:07:33;;;;;;;3.40;0.50;;;;;;;12.18;74.28;97407.16;4988006;28;20043;-67
2023/11/03 05:09:59;;;;;;;0.30;0.30;;;;;;;12.03;75.12;97412.34;4992508;28;20525;-66
2023/11/03 05:12:24;;;;;;;1.38;0.95;;;;;;;11.89;74.92;97412.88;4994062;28;20018;-67
2023/11/03 05:14:50;;;;;;;1.52;0.50;;;;;;;11.96;76.18;97418.03;4988781;28;20452;-67
2023/11/03 05:17:16;;;;;;;0.98;0.52;;;;;;;11.83;76.97;97416.63;4988412;28;20088;-67
2023/11/03 05:19:41;;;;;;;0.40;0.40;;;;;;;11.84;75.64;97412.72;4987056;28;20113;-67
2023/11/03 05:22:07;;;;;;;1.00;0.38;;;;;;;11.97;76.04;97413.38;4987202;28;20042;-67
2023/11/03 05:24:32;;;;;;;0.30;0.28;;;;;;;11.98;75.73;97421.00;4985301;28;20106;-67
2023/11/03 05:26:57;;;;;;;0.63;0.40;;;;;;;11.98;75.36;97410.22;4985297;28;20030;-66
2023/11/03 05:29:23;;;;;;;0.73;0.30;;;;;;;12.07;75.59;97407.56;4985471;28;20100;-67
2023/11/03 05:31:50;;;;;;;1.25;0.50;;;;;;;12.11;75.48;97408.19;4988181;28;20084;-66
2023/11/03 05:34:15;;;;;;;0.93;0.50;;;;;;;12.12;75.27;97419.72;5005203;28;20085;-66
2023/11/03 05:36:41;;;;;;;2.05;0.60;;;;;;;12.03;75.48;97398.88;4990807;28;20471;-67
2023/11/03 05:39:08;;;;;;;2.72;0.73;;;;;;;12.00;76.16;97393.63;4991221;28;20121;-67
2023/11/03 05:41:34;;;;;;;2.75;0.88;;;;;;;11.99;74.69;97395.56;4991825;28;20038;-67
2023/11/03 05:43:59;;;;;;;1.38;0.57;;;;;;;11.93;76.26;97393.88;4990478;28;20033;-66
2023/11/03 05:46:25;;;;;;;2.17;0.60;;;;;;;11.92;76.08;97387.00;4996144;28;20042;-67
2023/11/03 05:48:52;;;;;;;1.50;0.82;;;;;;;11.98;75.54;97385.94;5005685;28;20548;-67
2023/11/03 05:51:21;;;;;;;1.33;0.35;;;;;;;11.92;76.00;97390.44;4985737;28;20556;-66
2023/11/03 05:53:50;;;;;;;3.28;0.60;;;;;;;11.90;76.18;97398.22;5001605;28;20077;-67
2023/11/03 05:56:16;;;;;;;0.73;0.25;;;;;;;11.95;76.40;97400.34;4984478;28;20092;-67
2023/11/03 05:58:42;;;;;;;1.50;0.88;;;;;;;12.14;75.26;97404.59;4985983;28;20488;-66
2023/11/03 06:01:08;;;;;;;1.45;0.63;;;;;;;12.10;75.13;97401.28;4988694;28;20034;-67
2023/11/03 06:03:34;;;;;;;2.70;0.60;;;;;;;12.18;75.11;97401.75;4986430;28;20142;-66
2023/11/03 06:05:59;;;;;;;0.30;0.30;;;;;;;11.87;76.27;97406.44;4992980;28;20073;-66
2023/11/03 06:08:26;;;;;;;0.70;0.57;;;;;;;11.86;76.63;97413.78;4988007;28;20105;-67
2023/11/03 06:10:51;;;;;;;2.78;1.02;;;;;;;11.93;76.50;97410.06;4986565;28;20092;-67
2023/11/03 06:13:17;;;;;;;2.30;0.45;;;;;;;12.10;75.70;97420.16;4989742;28;20046;-66
2023/11/03 06:15:43;;;;;;;3.13;0.70;;;;;;;12.07;75.91;97429.16;4988449;28;20066;-66
2023/11/03 06:18:11;;;;;;;1.58;0.50;;;;;;;12.11;75.03;97431.72;5002731;28;20037;-67
2023/11/03 06:20:37;;;;;;;3.15;0.45;;;;;;;11.93;76.17;97426.22;4997837;28;20021;-66
2023/11/03 06:23:03;;;;;;;0.93;0.60;;;;;;;11.98;76.51;97431.06;4985599;28;20038;-67
2023/11/03 06:25:31;;;;;;;2.85;0.90;;;;;;;12.02;76.40;97437.81;4985735;28;20053;-66
2023/11/03 06:27:57;;;;;;;3.42;0.45;;;;;;;12.12;75.66;97443.97;4990833;28;20054;-66
2023/11/03 06:30:22;;;;;;;1.90;0.35;;;;;;;12.15;75.64;97443.88;4993546;28;20072;-66
2023/11/03 06:32:48;;;;;;;0.35;0.35;;;;;;;12.21;75.59;97449.44;4983303;28;20041;-66
2023/11/03 06:35:14;;;;;;;0.20;0.20;;;;;;;12.27;75.92;97464.59;4989689;28;20378;-67
2023/11/03 06:37:42;;;;;;;0.60;0.43;;;;;;;12.31;75.06;97459.81;4994278;28;20766;-66
2023/11/03 06:40:10;;;;;;;9.07;1.05;;;;;;;12.15;74.76;97468.16;4996919;28;20043;-66
2023/11/03 06:42:39;;;;;;;1.35;0.65;;;;;;;12.19;75.30;97474.16;4989279;28;20026;-66
2023/11/03 06:45:08;;;;;;;1.05;0.52;;;;;;;12.26;75.41;97481.97;4986869;28;20030;-66
2023/11/03 06:47:37;;;;;;;0.80;0.38;;;;;;;12.34;75.15;97480.50;4974113;28;20030;-67
2023/11/03 06:50:03;;;;;;;4.78;0.60;;;;;;;12.31;74.84;97486.78;4992976;28;20029;-67
2023/11/03 06:52:29;;;;;;;2.10;0.43;;;;;;;12.32;75.34;97485.59;4989934;28;20112;-66
2023/11/03 06:54:55;;;;;;;0.80;0.55;;;;;;;12.41;75.00;97492.97;5005333;28;20050;-66
2023/11/03 06:57:21;;;;;;;1.38;0.70;;;;;;;12.39;74.42;97488.03;4988448;28;20496;-66
2023/11/03 06:59:46;;;;;;;4.15;0.60;;;;;;;12.32;75.20;97482.91;4984825;28;20038;-67
2023/11/03 07:02:12;;;;;;;0.55;0.55;;;;;;;12.40;74.92;97494.94;4991509;28;20038;-67
2023/11/03 07:04:37;;;;;;;1.02;0.55;;;;;;;12.37;74.58;97493.09;4987168;28;20035;-67
2023/11/03 07:07:04;;;;;;;2.65;0.70;;;;;;;12.37;75.01;97497.75;4990326;28;20037;-67
2023/11/03 07:09:30;;;;;;;0.63;0.52;;;;;;;12.42;74.67;97495.25;4999981;28;20056;-67
2023/11/03 07:11:56;;;;;;;3.35;0.65;;;;;;;12.26;74.91;97497.41;4987859;28;20104;-67
2023/11/03 07:14:23;;;;;;;1.55;0.40;;;;;;;12.37;74.97;97506.59;4994333;28;20484;-66
2023/11/03 07:16:53;;;;;;;0.88;0.45;;;;;;;12.31;75.37;97519.16;4990952;28;20096;-67
2023/11/03 07:19:22;;;;;;;1.92;0.57;;;;;;;12.47;74.87;97521.63;4984224;28;20114;-66
2023/11/03 07:21:51;;;;;;;0.52;0.40;;;;;;;12.39;74.94;97522.34;4987342;28;20030;-66
2023/11/03 07:24:21;;;;;;;4.65;0.50;;;;;;;12.36;75.41;97524.00;4982379;28;20081;-66
2023/11/03 07:26:50;;;;;;;4.40;0.70;;;;;;;12.37;74.86;97522.78;5002252;28;20053;-66
2023/11/03 07:29:16;;;;;;;1.48;0.65;;;;;;;12.35;75.21;97527.16;4994212;28;20053;-66
2023/11/03 07:31:42;;;;;;;0.75;0.47;;;;;;;12.28;75.75;97535.50;4983513;28;20042;-66
2023/11/03 07:34:08;;;;;;;2.92;0.70;;;;;;;12.03;76.00;97524.88;4986452;28;20081;-67
2023/11/03 07:36:34;;;;;;;2.22;0.60;;;;;;;12.09;76.07;97518.47;4985851;28;20481;-66
2023/11/03 07:38:59;;;;;;;2.45;0.47;;;;;;;12.36;75.88;97520.53;4985470;28;20082;-66
2023/11/03 07:41:25;;;;;;;0.40;0.30;;;;;;;12.37;75.77;97525.50;4990252;28;20081;-66
2023/11/03 07:43:54;;;;;;;0.57;0.43;;;;;;;12.38;75.25;97528.94;4990972;28;20045;-66
2023/11/03 07:46:21;;;;;;;0.70;0.40;;;;;;;12.42;74.96;97524.94;4982421;28;20018;-66
2023/11/03 07:48:46;;;;;;;2.17;0.75;;;;;;;12.59;74.79;97518.09;4990969;28;20042;-67
2023/11/03 07:51:12;;;;;;;1.48;0.95;;;;;;;12.66;74.22;97512.41;4987698;28;20031;-66
2023/11/03 07:53:37;;;;;;;0.85;0.32;;;;;;;12.74;73.45;97517.53;4988078;28;20023;-66
2023/11/03 07:56:03;;;;;;;1.63;0.73;;;;;;;12.67;74.34;97516.63;4982777;28;20031;-66
2023/11/03 07:58:29;;;;;;;0.47;0.40;;;;;;;12.83;74.03;97515.63;4989983;28;20040;-66
2023/11/03 08:00:56;;;;;;;1.95;0.60;;;;;;;12.88;73.27;97515.00;4980442;28;20045;-66
2023/11/03 08:03:21;;;;;;;0.85;0.85;;;;;;;12.76;73.43;97507.03;4982098;28;20362;-66
2023/11/03 08:05:46;;;;;;;0.47;0.45;;;;;;;12.87;72.87;97518.94;4989963;28;20084;-66
2023/11/03 08:08:14;;;;;;;3.22;0.40;;;;;;;12.95;73.11;97519.38;4994781;28;20030;-66
2023/11/03 08:10:40;;;;;;;2.72;0.35;;;;;;;12.95;73.22;97514.00;4994522;28;20053;-67
2023/11/03 08:13:06;;;;;;;3.70;0.50;;;;;;;12.85;73.20;97510.53;4993396;28;20043;-66
2023/11/03 08:15:32;;;;;;;2.42;0.52;;;;;;;12.92;73.53;97517.56;4986502;28;20030;-66
2023/11/03 08:17:58;;;;;;;2.10;0.82;;;;;;;13.03;73.15;97507.06;4993577;28;20478;-66
2023/11/03 08:20:24;;;;;;;0.57;0.55;;;;;;;12.75;74.50;97514.38;5004617;28;20113;-67
2023/11/03 08:22:51;;;;;;;0.77;0.43;;;;;;;12.94;73.33;97515.16;4990706;28;20152;-66
2023/11/03 08:25:16;;;;;;;1.77;0.50;;;;;;;13.07;73.20;97523.91;4992443;28;20404;-66
2023/11/03 08:27:42;;;;;;;0.50;0.40;;;;;;;13.01;71.54;97529.13;4992594;28;20042;-67
2023/11/03 08:30:10;;;;;;;2.13;0.32;;;;;;;12.87;73.20;97542.47;5009138;28;20050;-66
2023/11/03 08:32:36;;;;;;;2.00;0.63;;;;;;;12.94;73.93;97544.88;5001304;28;20019;-66
2023/11/03 08:35:05;;;;;;;1.48;0.73;;;;;;;12.91;73.68;97551.91;4988048;28;20097;-67
2023/11/03 08:37:33;;;;;;;0.32;0.30;;;;;;;12.94;74.02;97547.59;5006388;28;20061;-67
2023/11/03 08:39:59;;;;;;;0.20;0.20;;;;;;;13.09;72.91;97551.25;4987963;28;20027;-66
2023/11/03 08:42:26;;;;;;;0.40;0.40;;;;;;;13.01;72.66;97558.84;4990688;28;20472;-67
2023/11/03 08:44:52;;;;;;;1.23;0.50;;;;;;;12.93;73.40;97552.22;4991641;28;20053;-66
2023/11/03 08:47:19;;;;;;;0.35;0.20;;;;;;;13.00;73.40;97554.66;4991941;28;20402;-67
2023/11/03 08:49:44;;;;;;;0.98;0.47;;;;;;;13.00;74.23;97556.59;4993962;28;20108;-67
2023/11/03 08:52:10;;;;;;;0.70;0.32;;;;;;;13.07;73.09;97557.09;4989249;28;20034;-66
2023/11/03 08:54:36;;;;;;;0.30;0.30;;;;;;;12.99;73.47;97552.41;5005031;28;20038;-67
2023/11/03 08:57:02;;;;;;;1.00;0.52;;;;;;;13.07;73.68;97556.34;4989483;28;20057;-66
2023/11/03 08:59:29;;;;;;;1.75;0.50;;;;;;;13.05;73.03;97564.91;4988363;28;20038;-67
2023/11/03 09:01:55;;;;;;;1.70;0.38;;;;;;;13.18;73.15;97567.50;4965766;28;20053;-66
2023/11/03 09:04:22;;;;;;;1.88;0.65;;;;;;;13.26;71.99;97574.09;4986940;28;20038;-67
2023/11/03 09:06:48;;;;;;;1.00;0.65;;;;;;;13.29;72.41;97586.72;5006256;28;20527;-67
2023/11/03 09:09:13;;;;;;;0.50;0.40;;;;;;;13.17;72.83;97579.47;4983068;28;20038;-67
2023/11/03 09:11:41;;;;;;;1.77;0.55;;;;;;;13.28;72.67;97594.06;5008842;28;20666;-66
2023/11/03 09:14:07;;;;;;;0.50;0.50;;;;;;;13.21;72.53;97588.19;4991944;28;20096;-67
2023/11/03 09:16:34;;;;;;;0.60;0.50;;;;;;;13.28;71.54;97593.31;4987450;28;20030;-66
2023/11/03 09:19:00;;;;;;;0.30;0.30;;;;;;;13.21;73.02;97594.38;4998762;28;20066;-66
2023/11/03 09:21:25;;;;;;;0.50;0.50;;;;;;;13.25;72.97;97584.16;4991585;28;20077;-66
2023/11/03 09:23:51;;;;;;;0.45;0.38;;;;;;;13.34;73.15;97578.00;4988259;28;20042;-67
2023/11/03 09:26:17;;;;;;;4.10;0.60;;;;;;;13.36;72.70;97589.13;4985438;28;20535;-66
2023/11/03 09:28:44;;;;;;;0.68;0.45;;;;;;;13.45;72.34;97587.19;4988859;28;20477;-67
2023/11/03 09:31:12;;;;;;;3.28;0.50;;;;;;;13.54;71.71;97583.75;4984073;28;20043;-66
2023/11/03 09:33:37;;;;;;;2.63;0.38;;;;;;;13.67;71.52;97581.66;4987164;28;20176;-66
2023/11/03 09:36:04;;;;;;;0.38;0.38;;;;;;;13.44;71.14;97601.16;4991355;28;20061;-67
2023/11/03 09:38:31;;;;;;;0.38;0.38;;;;;;;13.42;71.79;97596.19;4994597;28;20057;-66
2023/11/03 09:40:56;;;;;;;0.45;0.30;;;;;;;13.53;72.00;97604.63;4990995;28;20137;-66
2023/11/03 09:43:22;;;;;;;0.38;0.35;;;;;;;13.56;71.43;97603.75;4987007;28;20109;-67
2023/11/03 09:45:48;;;;;;;2.70;0.90;;;;;;;13.70;71.07;97601.63;4977998;28;20657;-67
2023/11/03 09:48:17;;;;;;;0.68;0.50;;;;;;;13.66;71.49;97607.19;4984181;28;20015;-67
2023/11/03 09:50:43;;;;;;;0.30;0.30;;;;;;;13.80;70.93;97619.38;4992138;28;20066;-67
2023/11/03 09:53:13;;;;;;;0.50;0.40;;;;;;;14.01;70.64;97618.47;4987715;28;20070;-66
2023/11/03 09:55:41;;;;;;;1.23;0.53;;;;;;;14.08;69.95;97613.50;4987890;28;20034;-66
2023/11/03 09:58:07;;;;;;;0.40;0.40;;;;;;;14.20;69.53;97607.19;4991523;28;20068;-66
2023/11/03 10:00:33;;;;;;;0.75;0.45;;;;;;;14.24;69.18;97607.78;4989404;28;20122;-67
2023/11/03 10:03:00;;;;;;;0.65;0.52;;;;;;;14.28;69.49;97619.22;4991682;28;20038;-67
2023/11/03 10:05:29;;;;;;;0.22;0.22;;;;;;;14.24;69.04;97615.13;4990399;28;20117;-66
2023/11/03 10:08:11;;;;;;;4.85;0.50;;;;;;;14.25;69.46;97611.97;4991013;28;20073;-66
2023/11/03 10:10:38;;;;;;;0.30;0.30;;;;;;;14.20;69.54;97609.88;4983360;28;20373;-67
2023/11/03 10:13:11;;;;;;;1.95;0.30;;;;;;;14.20;69.21;97607.19;4987655;28;20038;-66
2023/11/03 10:15:40;;;;;;;0.40;0.40;;;;;;;14.07;70.10;97603.88;4987549;28;20030;-67
2023/11/03 10:18:07;;;;;;;1.02;0.45;;;;;;;14.02;70.97;97596.38;4984874;28;21860;-67
2023/11/03 10:20:32;;;;;;;1.27;0.43;;;;;;;14.00;70.39;97601.47;4990860;28;20500;-67
2023/11/03 10:22:59;;;;;;;0.52;0.43;;;;;;;14.05;70.41;97606.28;5000093;28;20029;-67
2023/11/03 10:25:26;;;;;;;0.55;0.38;;;;;;;14.14;70.31;97614.41;4990496;28;20033;-67
2023/11/03 10:27:55;;;;;;;0.73;0.50;;;;;;;14.28;70.29;97618.47;4991255;28;20030;-67
2023/11/03 10:30:24;;;;;;;0.93;0.32;;;;;;;14.33;69.73;97626.72;5006517;28;20083;-67
2023/11/03 10:32:49;;;;;;;1.50;0.50;;;;;;;14.27;70.35;97622.34;4987150;28;20026;-67
2023/11/03 10:35:15;;;;;;;3.13;0.52;;;;;;;14.42;70.33;97623.22;5004789;28;20038;-66
2023/11/03 10:37:41;;;;;;;1.13;0.82;;;;;;;14.33;70.38;97631.38;4991911;28;20041;-67
2023/11/03 10:40:15;;;;;;;0.88;0.50;;;;;;;14.46;69.29;97629.25;4990974;28;20038;-66
2023/11/03 10:42:47;;;;;;;0.50;0.50;;;;;;;14.31;70.35;97634.53;4985206;28;20034;-67
2023/11/03 10:45:15;;;;;;;2.60;0.40;;;;;;;14.28;71.20;97638.19;4996967;28;20569;-66
2023/11/03 10:48:07;;;;;;;1.10;0.47;;;;;;;14.12;71.58;97637.69;4991747;28;20038;-67
2023/11/03 10:50:35;;;;;;;1.60;0.55;;;;;;;14.20;71.52;97633.47;5012206;28;20022;-67
2023/11/03 10:53:38;;;;;;;0.30;0.28;;;;;;;14.13;71.49;97645.34;4984749;28;20034;-66
2023/11/03 10:56:05;;;;;;;0.40;0.30;;;;;;;14.05;71.75;97649.56;4993233;28;20481;-67
2023/11/03 10:58:32;;;;;;;1.00;0.55;;;;;;;13.93;71.81;97655.91;4986768;28;20180;-66
2023/11/03 11:01:20;;;;;;;0.73;0.50;;;;;;;13.93;73.04;97666.72;4985590;28;20125;-67
2023/11/03 11:04:06;;;;;;;3.92;0.77;;;;;;;14.09;72.99;97673.78;5009770;28;20120;-67
2023/11/03 11:06:38;;;;;;;0.40;0.40;;;;;;;13.99;73.65;97677.69;4991913;28;20527;-66
2023/11/03 11:09:10;;;;;;;1.75;0.63;;;;;;;14.09;73.00;97674.53;4978969;28;20022;-66
2023/11/03 11:11:38;;;;;;;0.68;0.60;;;;;;;14.17;73.13;97677.69;4970401;28;20130;-67
2023/11/03 11:14:24;;;;;;;1.42;0.88;;;;;;;14.24;73.47;97672.75;4994843;28;20510;-67
2023/11/03 11:16:54;;;;;;;0.63;0.30;;;;;;;14.37;72.07;97681.47;4987663;28;20049;-66
2023/11/03 11:19:28;;;;;;;2.72;0.57;;;;;;;14.43;72.28;97676.97;4990471;28;20054;-66
2023/11/03 11:21:59;;;;;;;1.63;0.80;;;;;;;14.37;72.33;97673.34;4990442;28;20126;-66
2023/11/03 11:24:28;;;;;;;0.60;0.60;;;;;;;14.38;72.33;97680.25;4990347;28;20046;-67
2023/11/03 11:27:15;;;;;;;0.68;0.63;;;;;;;14.50;72.56;97686.72;4989675;28;20069;-67
2023/11/03 11:29:42;;;;;;;4.78;0.75;;;;;;;14.43;72.33;97670.78;5000783;28;20509;-66
2023/11/03 11:32:10;;;;;;;1.02;0.73;;;;;;;14.45;71.85;97682.66;5006293;28;20526;-67
2023/11/03 11:34:39;;;;;;;1.17;0.88;;;;;;;14.40;72.81;97680.56;4986946;28;20055;-67